createdAt,value
2022-12-01T00:01:26.729Z,6.88
2022-12-01T00:03:54.646Z,6.79
2022-12-01T00:06:22.735Z,6.80
2022-12-01T00:09:14.017Z,6.75
2022-12-01T00:11:44.954Z,6.70
2022-12-01T00:14:13.053Z,6.40
2022-12-01T00:16:41.283Z,6.36
2022-12-01T00:19:09.580Z,6.37
2022-12-01T00:21:37.402Z,6.62
2022-12-01T00:24:10.837Z,6.92
2022-12-01T00:26:38.870Z,6.96
2022-12-01T00:29:06.873Z,6.69
2022-12-01T00:31:35.101Z,6.45
2022-12-01T00:34:05.695Z,6.59
2022-12-01T00:36:36.206Z,6.62
2022-12-01T00:39:04.236Z,6.75
2022-12-01T00:41:32.143Z,6.49
2022-12-01T00:44:00.109Z,6.41
2022-12-01T00:46:28.038Z,6.18
2022-12-01T00:48:55.945Z,6.28
2022-12-01T00:51:24.732Z,6.30
2022-12-01T00:53:52.595Z,6.36
2022-12-01T00:56:21.232Z,6.29
2022-12-01T00:58:49.209Z,6.27
2022-12-01T01:01:17.176Z,6.34
2022-12-01T01:03:45.011Z,6.48
2022-12-01T01:06:13.150Z,6.55
2022-12-01T01:08:41.224Z,6.40
2022-12-01T01:11:09.497Z,6.54
2022-12-01T01:13:37.657Z,6.57
2022-12-01T01:16:08.826Z,6.55
2022-12-01T01:18:36.781Z,6.61
2022-12-01T01:21:08.550Z,6.51
2022-12-01T01:23:38.657Z,6.44
2022-12-01T01:26:30.470Z,6.45
2022-12-01T01:29:00.734Z,6.45
2022-12-01T01:31:29.990Z,6.55
2022-12-01T01:33:58.145Z,6.45
2022-12-01T01:36:26.758Z,6.51
2022-12-01T01:38:55.751Z,6.56
2022-12-01T01:41:24.005Z,6.61
2022-12-01T01:44:03.257Z,6.60
2022-12-01T01:46:33.307Z,6.69
2022-12-01T01:49:03.257Z,6.69
2022-12-01T01:51:49.178Z,6.73
2022-12-01T01:54:31.657Z,6.59
2022-12-01T01:57:00.577Z,6.50
2022-12-01T01:59:38.665Z,6.46
2022-12-01T02:02:09.460Z,6.46
2022-12-01T02:04:40.610Z,6.59
2022-12-01T02:07:09.029Z,6.64
2022-12-01T02:09:36.906Z,6.55
2022-12-01T02:12:25.004Z,6.57
2022-12-01T02:15:27.583Z,6.68
2022-12-01T02:18:07.415Z,6.75
2022-12-01T02:21:19.446Z,6.76
2022-12-01T02:24:20.816Z,6.59
2022-12-01T02:27:09.040Z,6.71
2022-12-01T02:29:56.903Z,6.71
2022-12-01T02:32:50.565Z,6.80
2022-12-01T02:35:35.941Z,6.78
2022-12-01T02:38:20.576Z,6.61
2022-12-01T02:41:43.083Z,6.65
2022-12-01T02:44:34.255Z,6.63
2022-12-01T02:47:10.592Z,6.67
2022-12-01T02:49:50.856Z,6.63
2022-12-01T02:52:19.007Z,6.46
2022-12-01T02:54:47.017Z,6.42
2022-12-01T02:57:15.919Z,6.53
2022-12-01T02:59:47.824Z,6.62
2022-12-01T03:02:30.136Z,6.63
2022-12-01T03:05:05.923Z,6.63
2022-12-01T03:07:45.941Z,6.64
2022-12-01T03:10:39.251Z,6.61
2022-12-01T03:13:15.909Z,6.58
2022-12-01T03:15:57.340Z,6.55
2022-12-01T03:18:31.382Z,6.56
2022-12-01T03:21:28.659Z,6.50
2022-12-01T03:24:10.753Z,6.48
2022-12-01T03:26:38.824Z,6.52
2022-12-01T03:29:10.705Z,6.48
2022-12-01T03:32:04.936Z,6.45
2022-12-01T03:34:41.416Z,6.43
2022-12-01T03:37:14.655Z,6.33
2022-12-01T03:39:42.551Z,6.31
2022-12-01T03:42:26.291Z,6.30
2022-12-01T03:44:56.660Z,6.17
2022-12-01T03:47:32.147Z,6.30
2022-12-01T03:50:00.580Z,6.38
2022-12-01T03:52:59.906Z,6.48
2022-12-01T03:55:30.014Z,6.35
2022-12-01T03:58:11.481Z,6.36
2022-12-01T04:00:39.405Z,6.33
2022-12-01T04:03:07.348Z,6.40
2022-12-01T04:05:35.484Z,6.52
2022-12-01T04:08:03.503Z,6.40
2022-12-01T04:10:33.133Z,6.27
2022-12-01T04:13:01.068Z,6.42
2022-12-01T04:15:29.008Z,6.25
2022-12-01T04:17:56.969Z,6.29
2022-12-01T04:20:24.933Z,6.41
2022-12-01T04:22:52.795Z,6.46
2022-12-01T04:25:20.773Z,6.42
2022-12-01T04:27:49.248Z,6.48
2022-12-01T04:30:17.522Z,6.41
2022-12-01T04:32:45.901Z,6.30
2022-12-01T04:35:13.766Z,6.21
2022-12-01T04:37:41.610Z,6.28
2022-12-01T04:40:10.503Z,6.20
2022-12-01T04:42:38.385Z,6.08
2022-12-01T04:45:07.219Z,6.12
2022-12-01T04:47:35.312Z,6.09
2022-12-01T04:50:03.379Z,5.90
2022-12-01T04:52:35.250Z,5.92
2022-12-01T04:55:04.507Z,5.96
2022-12-01T04:57:32.445Z,5.98
2022-12-01T05:00:00.227Z,6.04
2022-12-01T05:02:28.111Z,6.12
2022-12-01T05:04:56.125Z,6.15
2022-12-01T05:07:24.035Z,5.91
2022-12-01T05:09:52.116Z,5.98
2022-12-01T05:12:20.247Z,6.08
2022-12-01T05:14:48.246Z,6.04
2022-12-01T05:17:16.297Z,6.09
2022-12-01T05:20:03.200Z,5.85
2022-12-01T05:23:03.332Z,5.73
2022-12-01T05:25:19.409Z,5.64
2022-12-01T05:27:47.276Z,5.62
2022-12-01T05:30:15.254Z,5.83
2022-12-01T05:32:43.075Z,6.01
2022-12-01T05:35:10.904Z,5.89
2022-12-01T05:37:38.745Z,6.00
2022-12-01T05:40:07.666Z,6.12
2022-12-01T05:42:35.540Z,5.82
2022-12-01T05:45:03.596Z,5.81
2022-12-01T05:47:31.422Z,5.82
2022-12-01T05:50:03.745Z,6.00
2022-12-01T05:52:35.351Z,5.94
2022-12-01T05:55:04.548Z,5.96
2022-12-01T05:57:33.232Z,5.98
2022-12-01T06:00:01.055Z,5.88
2022-12-01T06:02:41.559Z,5.88
2022-12-01T06:05:09.834Z,5.91
2022-12-01T06:07:40.533Z,5.89
2022-12-01T06:10:09.916Z,5.94
2022-12-01T06:12:38.042Z,5.97
2022-12-01T06:15:07.157Z,5.93
2022-12-01T06:17:39.939Z,6.03
2022-12-01T06:20:09.376Z,6.03
2022-12-01T06:22:37.382Z,6.05
2022-12-01T06:25:06.016Z,6.01
2022-12-01T06:27:33.962Z,6.07
2022-12-01T06:30:02.213Z,6.06
2022-12-01T06:32:30.188Z,5.97
2022-12-01T06:34:58.045Z,5.61
2022-12-01T06:37:27.753Z,5.57
2022-12-01T06:39:55.619Z,5.69
2022-12-01T06:42:23.689Z,5.73
2022-12-01T06:44:51.549Z,5.62
2022-12-01T06:47:19.443Z,5.59
2022-12-01T06:49:47.708Z,5.69
2022-12-01T06:52:15.971Z,5.63
2022-12-01T06:54:43.833Z,5.55
2022-12-01T06:57:12.034Z,5.58
2022-12-01T06:59:40.083Z,5.68
2022-12-01T07:02:11.277Z,5.86
2022-12-01T07:04:39.228Z,5.91
2022-12-01T07:07:07.565Z,5.87
2022-12-01T07:09:35.530Z,5.96
2022-12-01T07:12:03.808Z,5.97
2022-12-01T07:14:34.850Z,5.87
2022-12-01T07:17:02.752Z,5.71
2022-12-01T07:19:30.704Z,5.86
2022-12-01T07:21:58.654Z,6.01
2022-12-01T07:24:26.518Z,6.01
2022-12-01T07:26:54.388Z,5.96
2022-12-01T07:29:22.332Z,5.95
2022-12-01T07:31:50.167Z,5.83
2022-12-01T07:34:18.093Z,5.92
2022-12-01T07:36:45.948Z,5.95
2022-12-01T07:39:13.813Z,5.83
2022-12-01T07:41:41.670Z,5.83
2022-12-01T07:44:10.824Z,5.92
2022-12-01T07:46:38.729Z,5.91
2022-12-01T07:49:07.192Z,5.85
2022-12-01T07:51:35.202Z,5.95
2022-12-01T07:54:05.001Z,5.92
2022-12-01T07:56:33.082Z,5.84
2022-12-01T07:59:07.594Z,5.78
2022-12-01T08:01:35.469Z,5.60
2022-12-01T08:04:03.479Z,5.66
2022-12-01T08:06:31.767Z,5.71
2022-12-01T08:08:59.701Z,5.70
2022-12-01T08:11:31.439Z,5.88
2022-12-01T08:13:59.326Z,5.98
2022-12-01T08:16:27.321Z,6.07
2022-12-01T08:18:55.267Z,5.99
2022-12-01T08:21:23.947Z,5.76
2022-12-01T08:23:56.423Z,5.71
2022-12-01T08:26:25.230Z,5.51
2022-12-01T08:28:53.200Z,5.34
2022-12-01T08:31:24.646Z,5.55
2022-12-01T08:33:52.781Z,5.44
2022-12-01T08:36:20.879Z,5.38
2022-12-01T08:38:52.051Z,5.48
2022-12-01T08:41:20.144Z,5.52
2022-12-01T08:44:03.734Z,5.53
2022-12-01T08:46:33.460Z,5.73
2022-12-01T08:49:02.794Z,5.61
2022-12-01T08:51:30.810Z,5.69
2022-12-01T08:53:59.402Z,5.84
2022-12-01T08:56:31.079Z,5.81
2022-12-01T08:58:58.989Z,5.76
2022-12-01T09:01:27.167Z,5.73
2022-12-01T09:04:08.950Z,5.84
2022-12-01T09:06:41.944Z,5.74
2022-12-01T09:09:12.764Z,5.78
2022-12-01T09:11:41.306Z,5.78
2022-12-01T09:14:09.467Z,5.82
2022-12-01T09:16:37.571Z,5.67
2022-12-01T09:19:05.667Z,5.55
2022-12-01T09:21:34.610Z,5.66
2022-12-01T09:24:02.649Z,5.70
2022-12-01T09:26:30.624Z,5.77
2022-12-01T09:29:03.673Z,5.76
2022-12-01T09:31:31.873Z,5.88
2022-12-01T09:34:08.321Z,5.93
2022-12-01T09:36:36.821Z,5.83
2022-12-01T09:39:06.842Z,5.73
2022-12-01T09:41:52.025Z,5.56
2022-12-01T09:44:45.449Z,5.63
2022-12-01T09:47:28.244Z,5.33
2022-12-01T09:50:13.042Z,5.30
2022-12-01T09:52:47.680Z,5.30
2022-12-01T09:55:17.970Z,5.25
2022-12-01T09:57:51.538Z,5.15
2022-12-01T10:00:30.104Z,5.21
2022-12-01T10:03:33.259Z,5.34
2022-12-01T10:09:29.811Z,5.23
2022-12-01T10:12:18.709Z,5.26
2022-12-01T10:14:48.792Z,5.10
2022-12-01T10:17:52.567Z,5.32
2022-12-01T10:21:14.878Z,5.17
2022-12-01T10:23:55.146Z,5.09
2022-12-01T10:26:30.750Z,5.25
2022-12-01T10:29:10.982Z,5.30
2022-12-01T10:31:54.221Z,5.29
2022-12-01T10:34:48.681Z,5.47
2022-12-01T10:37:20.371Z,5.50
2022-12-01T10:39:50.423Z,5.28
2022-12-01T10:42:32.803Z,5.55
2022-12-01T10:45:06.292Z,5.67
2022-12-01T10:47:34.257Z,5.72
2022-12-01T10:50:04.003Z,4.96
2022-12-01T10:52:36.931Z,3.87
2022-12-01T10:55:24.126Z,3.23
2022-12-01T10:57:52.893Z,3.87
2022-12-01T11:03:22.408Z,4.89
2022-12-01T11:05:55.673Z,5.13
2022-12-01T11:08:46.263Z,5.24
2022-12-01T11:11:23.912Z,5.37
2022-12-01T11:13:56.031Z,5.48
2022-12-01T11:16:44.264Z,5.54
2022-12-01T11:19:27.549Z,5.51
2022-12-01T11:21:58.717Z,4.67
2022-12-01T11:24:44.512Z,3.70
2022-12-01T11:27:22.854Z,3.81
2022-12-01T11:29:53.036Z,4.70
2022-12-01T11:32:30.329Z,5.05
2022-12-01T11:35:07.660Z,5.39
2022-12-01T11:37:54.860Z,5.52
2022-12-01T11:40:34.097Z,4.55
2022-12-01T11:43:05.196Z,3.50
2022-12-01T11:45:40.290Z,3.48
2022-12-01T11:48:15.458Z,4.07
2022-12-01T11:50:44.662Z,4.56
2022-12-01T11:53:31.815Z,4.88
2022-12-01T11:56:28.919Z,5.11
2022-12-01T11:59:06.587Z,4.98
2022-12-01T12:01:52.862Z,5.00
2022-12-01T12:04:48.554Z,5.16
2022-12-01T12:08:00.219Z,5.12
2022-12-01T12:10:56.004Z,5.09
2022-12-01T12:13:47.046Z,5.09
2022-12-01T12:16:37.062Z,5.23
2022-12-01T12:23:13.831Z,5.00
2022-12-01T12:25:59.057Z,4.95
2022-12-01T12:28:38.944Z,5.00
2022-12-01T12:31:35.130Z,4.70
2022-12-01T12:34:19.332Z,4.77
2022-12-01T12:37:23.780Z,4.60
2022-12-01T12:40:12.950Z,4.43
2022-12-01T12:43:44.874Z,4.17
2022-12-01T12:46:17.807Z,4.31
2022-12-01T12:49:20.675Z,4.43
2022-12-01T12:52:08.417Z,4.55
2022-12-01T12:55:12.475Z,4.64
2022-12-01T12:57:48.552Z,4.75
2022-12-01T13:00:22.155Z,4.51
2022-12-01T13:03:09.856Z,4.52
2022-12-01T13:05:57.656Z,4.58
2022-12-01T13:08:48.184Z,4.51
2022-12-01T13:11:31.693Z,4.66
2022-12-01T13:14:15.674Z,4.56
2022-12-01T13:16:46.716Z,4.20
2022-12-01T13:19:38.851Z,4.25
2022-12-01T13:22:07.458Z,4.41
2022-12-01T13:24:35.357Z,4.43
2022-12-01T13:27:06.288Z,4.36
2022-12-01T13:29:38.494Z,4.41
2022-12-01T13:32:34.958Z,4.56
2022-12-01T13:35:06.591Z,4.24
2022-12-01T13:37:37.732Z,4.17
2022-12-01T13:40:21.291Z,4.42
2022-12-01T13:43:04.343Z,4.28
2022-12-01T13:45:37.780Z,4.54
2022-12-01T13:48:06.645Z,4.65
2022-12-01T13:50:44.904Z,4.61
2022-12-01T13:53:20.371Z,4.61
2022-12-01T13:56:03.569Z,4.70
2022-12-01T13:58:34.156Z,4.59
2022-12-01T14:01:20.986Z,4.70
2022-12-01T14:04:02.051Z,4.92
2022-12-01T14:06:36.285Z,4.79
2022-12-01T14:09:32.819Z,4.49
2022-12-01T14:12:03.304Z,4.51
2022-12-01T14:14:40.326Z,4.58
2022-12-01T14:17:25.755Z,4.40
2022-12-01T14:19:53.633Z,4.58
2022-12-01T14:22:45.252Z,4.66
2022-12-01T14:25:22.683Z,4.64
2022-12-01T14:27:54.172Z,4.58
2022-12-01T14:30:41.035Z,4.32
2022-12-01T14:33:42.450Z,4.43
2022-12-01T14:36:20.861Z,4.48
2022-12-01T14:38:54.593Z,4.54
2022-12-01T14:41:28.225Z,4.56
2022-12-01T14:44:06.831Z,4.15
2022-12-01T14:47:10.387Z,4.17
2022-12-01T14:50:06.319Z,4.32
2022-12-01T14:52:37.817Z,3.92
2022-12-01T14:55:14.321Z,3.94
2022-12-01T14:57:50.669Z,4.25
2022-12-01T15:00:27.670Z,3.90
2022-12-01T15:03:13.759Z,4.08
2022-12-01T15:05:42.817Z,4.07
2022-12-01T15:08:58.228Z,3.99
2022-12-01T15:11:25.787Z,3.97
2022-12-01T15:13:55.334Z,3.81
2022-12-01T15:16:29.459Z,3.86
2022-12-01T15:18:57.657Z,4.06
2022-12-01T15:21:30.610Z,4.03
2022-12-01T15:24:04.629Z,4.12
2022-12-01T15:26:47.369Z,4.18
2022-12-01T15:29:21.075Z,4.17
2022-12-01T15:31:54.365Z,4.08
2022-12-01T15:34:24.141Z,3.93
2022-12-01T15:36:52.830Z,4.06
2022-12-01T15:39:35.761Z,4.03
2022-12-01T15:42:03.976Z,4.14
2022-12-01T15:44:35.894Z,4.13
2022-12-01T15:47:36.148Z,4.22
2022-12-01T15:50:05.950Z,4.19
2022-12-01T15:52:42.502Z,4.34
2022-12-01T15:55:28.252Z,4.50
2022-12-01T15:57:56.495Z,4.43
2022-12-01T16:00:24.769Z,4.36
2022-12-01T16:02:57.517Z,4.35
2022-12-01T16:05:35.661Z,4.23
2022-12-01T16:08:27.234Z,4.17
2022-12-01T16:11:18.163Z,4.15
2022-12-01T16:13:55.597Z,4.19
2022-12-01T16:16:40.450Z,4.14
2022-12-01T16:19:11.583Z,4.23
2022-12-01T16:21:58.872Z,4.19
2022-12-01T16:24:38.544Z,4.10
2022-12-01T16:27:08.049Z,4.04
2022-12-01T16:30:08.375Z,4.05
2022-12-01T16:32:41.058Z,3.81
2022-12-01T16:35:26.662Z,3.72
2022-12-01T16:37:54.724Z,3.76
2022-12-01T16:40:22.980Z,3.91
2022-12-01T16:42:50.973Z,4.10
2022-12-01T16:45:19.429Z,4.07
2022-12-01T16:47:49.653Z,4.16
2022-12-01T16:50:19.666Z,4.25
2022-12-01T16:52:47.839Z,4.26
2022-12-01T16:55:42.559Z,4.14
2022-12-01T16:58:10.542Z,4.01
2022-12-01T17:00:38.470Z,3.98
2022-12-01T17:03:06.956Z,4.06
2022-12-01T17:05:35.049Z,4.03
2022-12-01T17:08:03.434Z,4.08
2022-12-01T17:10:31.464Z,4.15
2022-12-01T17:12:59.536Z,4.04
2022-12-01T17:15:27.397Z,3.76
2022-12-01T17:17:55.370Z,3.75
2022-12-01T17:20:23.337Z,3.66
2022-12-01T17:22:51.159Z,3.75
2022-12-01T17:25:19.068Z,3.59
2022-12-01T17:27:46.934Z,3.68
2022-12-01T17:30:15.055Z,3.86
2022-12-01T17:32:43.175Z,3.92
2022-12-01T17:35:11.144Z,3.80
2022-12-01T17:37:39.420Z,3.78
2022-12-01T17:40:08.866Z,3.82
2022-12-01T17:42:37.119Z,3.99
2022-12-01T17:45:06.021Z,3.70
2022-12-01T17:47:33.834Z,3.78
2022-12-01T17:50:02.096Z,4.05
2022-12-01T17:52:30.464Z,4.09
2022-12-01T17:54:59.291Z,4.00
2022-12-01T17:57:27.156Z,4.11
2022-12-01T17:59:55.060Z,3.81
2022-12-01T18:02:23.256Z,2.62
2022-12-01T18:04:51.558Z,1.82
2022-12-01T18:07:20.406Z,2.25
2022-12-01T18:09:48.431Z,2.70
2022-12-01T18:12:16.295Z,2.96
2022-12-01T18:14:44.159Z,2.98
2022-12-01T18:17:12.134Z,3.13
2022-12-01T18:19:40.547Z,3.14
2022-12-01T18:22:08.907Z,3.01
2022-12-01T18:24:36.957Z,3.26
2022-12-01T18:27:04.796Z,3.56
2022-12-01T18:29:33.912Z,3.81
2022-12-01T18:32:01.914Z,3.80
2022-12-01T18:34:29.815Z,3.81
2022-12-01T18:36:58.021Z,3.93
2022-12-01T18:39:25.940Z,4.05
2022-12-01T18:41:54.366Z,3.24
2022-12-01T18:44:22.339Z,2.15
2022-12-01T18:46:50.343Z,1.46
2022-12-01T18:49:19.109Z,1.91
2022-12-01T18:51:47.058Z,2.59
2022-12-01T18:54:16.062Z,3.00
2022-12-01T18:56:43.979Z,3.15
2022-12-01T18:59:12.865Z,3.45
2022-12-01T19:01:43.945Z,3.66
2022-12-01T19:04:13.153Z,3.85
2022-12-01T19:06:41.868Z,3.91
2022-12-01T19:09:11.661Z,3.40
2022-12-01T19:11:40.740Z,2.31
2022-12-01T19:14:16.384Z,1.90
2022-12-01T19:16:45.325Z,2.43
2022-12-01T19:19:13.358Z,2.95
2022-12-01T19:21:41.723Z,3.19
2022-12-01T19:24:10.231Z,3.34
2022-12-01T19:26:38.114Z,3.43
2022-12-01T19:29:06.197Z,3.62
2022-12-01T19:31:34.721Z,3.75
2022-12-01T19:34:04.595Z,3.88
2022-12-01T19:36:32.808Z,3.82
2022-12-01T19:39:04.034Z,3.84
2022-12-01T19:41:38.660Z,3.70
2022-12-01T19:44:06.752Z,3.86
2022-12-01T19:46:34.812Z,3.90
2022-12-01T19:49:02.971Z,3.41
2022-12-01T19:51:37.311Z,2.26
2022-12-01T19:54:08.236Z,2.03
2022-12-01T19:56:36.514Z,2.43
2022-12-01T19:59:07.150Z,2.91
2022-12-01T20:01:35.092Z,3.02
2022-12-01T20:04:03.496Z,3.16
2022-12-01T20:06:32.890Z,3.20
2022-12-01T20:09:03.003Z,3.42
2022-12-01T20:11:33.070Z,3.52
2022-12-01T20:14:02.503Z,3.64
2022-12-01T20:16:33.721Z,3.68
2022-12-01T20:19:03.176Z,3.58
2022-12-01T20:21:36.261Z,3.61
2022-12-01T20:24:06.281Z,3.47
2022-12-01T20:26:43.504Z,3.57
2022-12-01T20:29:14.836Z,3.60
2022-12-01T20:31:43.210Z,3.69
2022-12-01T20:34:31.427Z,3.81
2022-12-01T20:36:59.603Z,3.53
2022-12-01T20:39:28.621Z,2.37
2022-12-01T20:41:56.475Z,1.88
2022-12-01T20:44:24.430Z,2.24
2022-12-01T20:46:52.706Z,2.67
2022-12-01T20:49:20.875Z,2.98
2022-12-01T20:51:48.830Z,3.09
2022-12-01T20:54:32.741Z,3.10
2022-12-01T20:57:00.967Z,3.29
2022-12-01T20:59:29.263Z,3.44
2022-12-01T21:01:57.265Z,3.43
2022-12-01T21:04:25.281Z,3.38
2022-12-01T21:06:57.590Z,3.41
2022-12-01T21:09:26.121Z,3.45
2022-12-01T21:12:12.761Z,3.26
2022-12-01T21:15:06.386Z,3.13
2022-12-01T21:17:38.802Z,3.16
2022-12-01T21:20:26.091Z,3.19
2022-12-01T21:22:54.057Z,3.22
2022-12-01T21:25:24.462Z,3.35
2022-12-01T21:27:52.389Z,2.56
2022-12-01T21:30:25.073Z,1.50
2022-12-01T21:32:53.188Z,1.11
2022-12-01T21:35:27.105Z,1.62
2022-12-01T21:38:03.377Z,2.25
2022-12-01T21:40:31.336Z,2.66
2022-12-01T21:43:21.855Z,2.89
2022-12-01T21:45:56.317Z,3.07
2022-12-01T21:48:24.322Z,3.30
2022-12-01T21:50:59.689Z,3.49
2022-12-01T21:53:33.523Z,2.87
2022-12-01T21:56:01.961Z,1.81
2022-12-01T21:58:37.185Z,1.11
2022-12-01T22:01:28.309Z,1.54
2022-12-01T22:04:02.067Z,2.18
2022-12-01T22:06:37.641Z,2.45
2022-12-01T22:09:33.672Z,2.53
2022-12-01T22:12:24.757Z,2.81
2022-12-01T22:14:53.611Z,3.04
2022-12-01T22:17:21.567Z,3.17
2022-12-01T22:19:58.219Z,3.14
2022-12-01T22:22:28.308Z,3.21
2022-12-01T22:25:21.454Z,3.33
2022-12-01T22:27:49.387Z,3.33
2022-12-01T22:30:20.851Z,3.37
2022-12-01T22:33:05.201Z,3.54
2022-12-01T22:35:44.901Z,3.10
2022-12-01T22:38:19.515Z,1.94
2022-12-01T22:41:12.141Z,1.28
2022-12-01T22:43:50.884Z,1.89
2022-12-01T22:46:26.413Z,2.53
2022-12-01T22:49:10.135Z,2.96
2022-12-01T22:51:48.911Z,3.09
2022-12-01T22:54:16.726Z,3.13
2022-12-01T22:56:46.667Z,3.27
2022-12-01T22:59:29.587Z,3.25
2022-12-01T23:02:00.112Z,3.28
2022-12-01T23:04:32.669Z,3.40
2022-12-01T23:07:29.812Z,3.42
2022-12-01T23:10:14.325Z,3.47
2022-12-01T23:12:42.887Z,3.48
2022-12-01T23:15:35.039Z,2.49
2022-12-01T23:18:29.092Z,1.42
2022-12-01T23:20:59.028Z,1.26
2022-12-01T23:23:32.398Z,1.79
2022-12-01T23:26:04.366Z,2.30
2022-12-01T23:28:32.359Z,2.81
2022-12-01T23:31:00.259Z,3.06
2022-12-01T23:33:29.901Z,3.06
2022-12-01T23:36:00.934Z,2.92
2022-12-01T23:38:36.281Z,3.04
2022-12-01T23:41:27.285Z,3.16
2022-12-01T23:43:55.774Z,3.13
2022-12-01T23:46:25.070Z,3.09
2022-12-01T23:49:05.251Z,2.98
2022-12-01T23:51:37.875Z,2.91
2022-12-01T23:54:28.091Z,2.81
2022-12-01T23:56:59.131Z,2.89
2022-12-01T23:59:27.045Z,3.10
